Yocum Creek, Kentucky
Current Conditions -  °F | °C
As of 11:35 AM on Tuesday 27 Jan 2015 (Local Time) from KI35 Reporting Station
Overcast Overcast  
Wind Chill: 32°   Ceiling: 4100
Heat Index: 32°   Visibility: 10mi
Dew Point: 23°   Wind: 3mph
Humidity: 69%   Direction: 80°E
Pressure: 29.97"   Gusts: NA
Location:  36.8509°N, 83.1611°W
Report Text: KI35 271635Z AUTO 08003KT 10SM SCT021 BKN041 OVC050 00/M05 A2997 RMK AO1
Loading
Personal Weather Stations






























Interactive Weather Map New forecast layout! Learn more

10-Day Weather Forecast

Advertisements
Track Severe Weather on mobile